sensor_id;sensor_type;location;lat;lon;timestamp;P1;durP1;ratioP1;P2;durP2;ratioP2
76176;SDS011;64938;47.696;8.066;2023-09-07T00:00:54;7.53;;;6.30;;
76176;SDS011;64938;47.696;8.066;2023-09-07T00:03:19;7.63;;;5.77;;
76176;SDS011;64938;47.696;8.066;2023-09-07T00:05:45;6.60;;;5.90;;
76176;SDS011;64938;47.696;8.066;2023-09-07T00:08:10;6.87;;;6.27;;
76176;SDS011;64938;47.696;8.066;2023-09-07T00:10:36;7.70;;;5.77;;
76176;SDS011;64938;47.696;8.066;2023-09-07T00:13:02;6.53;;;5.90;;
76176;SDS011;64938;47.696;8.066;2023-09-07T00:15:28;8.03;;;7.23;;
76176;SDS011;64938;47.696;8.066;2023-09-07T00:17:55;6.47;;;5.73;;
76176;SDS011;64938;47.696;8.066;2023-09-07T00:20:22;6.90;;;6.30;;
76176;SDS011;64938;47.696;8.066;2023-09-07T00:22:49;6.60;;;6.10;;
76176;SDS011;64938;47.696;8.066;2023-09-07T00:25:14;7.17;;;6.60;;
76176;SDS011;64938;47.696;8.066;2023-09-07T00:27:40;6.40;;;5.80;;
76176;SDS011;64938;47.696;8.066;2023-09-07T00:30:06;7.80;;;5.87;;
76176;SDS011;64938;47.696;8.066;2023-09-07T00:32:37;6.10;;;5.60;;
76176;SDS011;64938;47.696;8.066;2023-09-07T00:35:04;7.13;;;5.93;;
76176;SDS011;64938;47.696;8.066;2023-09-07T00:37:30;5.50;;;5.10;;
76176;SDS011;64938;47.696;8.066;2023-09-07T00:39:56;6.07;;;5.57;;
76176;SDS011;64938;47.696;8.066;2023-09-07T00:42:22;6.17;;;5.77;;
76176;SDS011;64938;47.696;8.066;2023-09-07T00:44:48;6.30;;;5.70;;
76176;SDS011;64938;47.696;8.066;2023-09-07T00:47:14;5.33;;;4.93;;
76176;SDS011;64938;47.696;8.066;2023-09-07T00:49:40;5.57;;;5.07;;
76176;SDS011;64938;47.696;8.066;2023-09-07T00:52:06;6.00;;;5.40;;
76176;SDS011;64938;47.696;8.066;2023-09-07T00:54:33;5.73;;;5.23;;
76176;SDS011;64938;47.696;8.066;2023-09-07T00:56:59;5.40;;;5.00;;
76176;SDS011;64938;47.696;8.066;2023-09-07T00:59:25;5.50;;;5.00;;
76176;SDS011;64938;47.696;8.066;2023-09-07T01:01:50;5.60;;;5.10;;
76176;SDS011;64938;47.696;8.066;2023-09-07T01:04:16;5.57;;;5.07;;
76176;SDS011;64938;47.696;8.066;2023-09-07T01:06:45;5.37;;;4.87;;
76176;SDS011;64938;47.696;8.066;2023-09-07T01:09:19;5.30;;;4.80;;
76176;SDS011;64938;47.696;8.066;2023-09-07T01:11:48;5.73;;;5.23;;
76176;SDS011;64938;47.696;8.066;2023-09-07T01:14:15;8.20;;;4.93;;
76176;SDS011;64938;47.696;8.066;2023-09-07T01:16:40;7.07;;;5.57;;
76176;SDS011;64938;47.696;8.066;2023-09-07T01:19:06;5.67;;;5.27;;
76176;SDS011;64938;47.696;8.066;2023-09-07T01:21:35;6.10;;;5.60;;
76176;SDS011;64938;47.696;8.066;2023-09-07T01:24:06;8.60;;;5.33;;
76176;SDS011;64938;47.696;8.066;2023-09-07T01:26:33;5.83;;;4.50;;
76176;SDS011;64938;47.696;8.066;2023-09-07T01:29:00;6.70;;;5.53;;
76176;SDS011;64938;47.696;8.066;2023-09-07T01:31:26;5.27;;;4.77;;
76176;SDS011;64938;47.696;8.066;2023-09-07T01:33:52;5.50;;;5.10;;
76176;SDS011;64938;47.696;8.066;2023-09-07T01:36:17;5.20;;;4.80;;
76176;SDS011;64938;47.696;8.066;2023-09-07T01:38:43;6.50;;;4.83;;
76176;SDS011;64938;47.696;8.066;2023-09-07T01:41:08;5.00;;;4.60;;
76176;SDS011;64938;47.696;8.066;2023-09-07T01:43:35;6.03;;;5.20;;
76176;SDS011;64938;47.696;8.066;2023-09-07T01:46:01;5.60;;;5.07;;
76176;SDS011;64938;47.696;8.066;2023-09-07T01:48:29;5.23;;;4.83;;
76176;SDS011;64938;47.696;8.066;2023-09-07T01:50:55;5.30;;;4.80;;
76176;SDS011;64938;47.696;8.066;2023-09-07T01:53:20;5.73;;;5.27;;
76176;SDS011;64938;47.696;8.066;2023-09-07T01:55:46;7.60;;;5.30;;
76176;SDS011;64938;47.696;8.066;2023-09-07T01:58:17;5.33;;;4.87;;
76176;SDS011;64938;47.696;8.066;2023-09-07T02:00:43;5.40;;;4.90;;
76176;SDS011;64938;47.696;8.066;2023-09-07T02:03:08;5.63;;;5.13;;
76176;SDS011;64938;47.696;8.066;2023-09-07T02:05:35;6.07;;;5.43;;
76176;SDS011;64938;47.696;8.066;2023-09-07T02:08:01;5.57;;;5.17;;
76176;SDS011;64938;47.696;8.066;2023-09-07T02:10:26;6.23;;;5.73;;
76176;SDS011;64938;47.696;8.066;2023-09-07T02:12:52;5.37;;;4.97;;
76176;SDS011;64938;47.696;8.066;2023-09-07T02:15:18;5.90;;;5.40;;
76176;SDS011;64938;47.696;8.066;2023-09-07T02:17:43;5.90;;;5.37;;
76176;SDS011;64938;47.696;8.066;2023-09-07T02:20:10;6.13;;;5.53;;
76176;SDS011;64938;47.696;8.066;2023-09-07T02:22:37;6.40;;;5.70;;
76176;SDS011;64938;47.696;8.066;2023-09-07T02:25:07;5.83;;;5.33;;
76176;SDS011;64938;47.696;8.066;2023-09-07T02:27:33;6.00;;;5.50;;
76176;SDS011;64938;47.696;8.066;2023-09-07T02:29:58;5.60;;;5.20;;
76176;SDS011;64938;47.696;8.066;2023-09-07T02:32:24;5.83;;;5.43;;
76176;SDS011;64938;47.696;8.066;2023-09-07T02:34:49;6.60;;;6.10;;
76176;SDS011;64938;47.696;8.066;2023-09-07T02:37:15;6.23;;;5.73;;
76176;SDS011;64938;47.696;8.066;2023-09-07T02:39:41;8.23;;;6.20;;
76176;SDS011;64938;47.696;8.066;2023-09-07T02:42:09;8.30;;;5.80;;
76176;SDS011;64938;47.696;8.066;2023-09-07T02:44:34;6.53;;;5.93;;
76176;SDS011;64938;47.696;8.066;2023-09-07T02:47:01;5.80;;;5.30;;
76176;SDS011;64938;47.696;8.066;2023-09-07T02:49:28;5.93;;;5.47;;
76176;SDS011;64938;47.696;8.066;2023-09-07T02:51:53;7.00;;;6.30;;
76176;SDS011;64938;47.696;8.066;2023-09-07T02:54:19;6.27;;;5.70;;
76176;SDS011;64938;47.696;8.066;2023-09-07T02:56:44;6.53;;;5.90;;
76176;SDS011;64938;47.696;8.066;2023-09-07T02:59:10;6.07;;;5.57;;
76176;SDS011;64938;47.696;8.066;2023-09-07T03:01:36;6.83;;;5.83;;
76176;SDS011;64938;47.696;8.066;2023-09-07T03:04:04;6.30;;;5.70;;
76176;SDS011;64938;47.696;8.066;2023-09-07T03:06:31;6.50;;;5.90;;
76176;SDS011;64938;47.696;8.066;2023-09-07T03:08:56;6.10;;;5.50;;
76176;SDS011;64938;47.696;8.066;2023-09-07T03:11:22;6.07;;;5.57;;
76176;SDS011;64938;47.696;8.066;2023-09-07T03:13:48;6.87;;;6.10;;
76176;SDS011;64938;47.696;8.066;2023-09-07T03:16:14;5.90;;;5.40;;
76176;SDS011;64938;47.696;8.066;2023-09-07T03:18:39;6.23;;;5.73;;
76176;SDS011;64938;47.696;8.066;2023-09-07T03:21:06;6.20;;;5.70;;
76176;SDS011;64938;47.696;8.066;2023-09-07T03:23:32;6.40;;;5.80;;
76176;SDS011;64938;47.696;8.066;2023-09-07T03:25:58;6.80;;;6.20;;
76176;SDS011;64938;47.696;8.066;2023-09-07T03:28:26;7.10;;;6.50;;
76176;SDS011;64938;47.696;8.066;2023-09-07T03:30:55;9.40;;;6.67;;
76176;SDS011;64938;47.696;8.066;2023-09-07T03:33:21;6.73;;;6.03;;
76176;SDS011;64938;47.696;8.066;2023-09-07T03:35:47;7.50;;;6.80;;
76176;SDS011;64938;47.696;8.066;2023-09-07T03:38:13;6.53;;;5.93;;
76176;SDS011;64938;47.696;8.066;2023-09-07T03:40:41;8.90;;;6.60;;
76176;SDS011;64938;47.696;8.066;2023-09-07T03:43:07;6.97;;;6.40;;
76176;SDS011;64938;47.696;8.066;2023-09-07T03:45:32;6.67;;;6.07;;
76176;SDS011;64938;47.696;8.066;2023-09-07T03:47:58;6.70;;;6.10;;
76176;SDS011;64938;47.696;8.066;2023-09-07T03:50:24;6.97;;;6.27;;
76176;SDS011;64938;47.696;8.066;2023-09-07T03:52:49;6.50;;;5.90;;
76176;SDS011;64938;47.696;8.066;2023-09-07T03:55:15;7.37;;;6.70;;
76176;SDS011;64938;47.696;8.066;2023-09-07T03:57:40;6.80;;;6.23;;
76176;SDS011;64938;47.696;8.066;2023-09-07T04:00:06;6.90;;;6.30;;
76176;SDS011;64938;47.696;8.066;2023-09-07T04:02:37;7.13;;;6.43;;
76176;SDS011;64938;47.696;8.066;2023-09-07T04:05:03;6.80;;;6.23;;
76176;SDS011;64938;47.696;8.066;2023-09-07T04:07:32;6.80;;;6.13;;
76176;SDS011;64938;47.696;8.066;2023-09-07T04:13:02;7.10;;;6.40;;
76176;SDS011;64938;47.696;8.066;2023-09-07T04:15:28;7.00;;;6.50;;
76176;SDS011;64938;47.696;8.066;2023-09-07T04:17:53;6.80;;;6.20;;
76176;SDS011;64938;47.696;8.066;2023-09-07T04:20:20;6.87;;;6.27;;
76176;SDS011;64938;47.696;8.066;2023-09-07T04:22:45;6.73;;;6.13;;
76176;SDS011;64938;47.696;8.066;2023-09-07T04:25:11;7.27;;;6.57;;
76176;SDS011;64938;47.696;8.066;2023-09-07T04:27:36;7.03;;;6.40;;
76176;SDS011;64938;47.696;8.066;2023-09-07T04:30:06;8.47;;;6.50;;
76176;SDS011;64938;47.696;8.066;2023-09-07T04:32:32;7.30;;;6.70;;
76176;SDS011;64938;47.696;8.066;2023-09-07T04:34:58;6.63;;;5.93;;
76176;SDS011;64938;47.696;8.066;2023-09-07T04:37:24;7.20;;;6.60;;
76176;SDS011;64938;47.696;8.066;2023-09-07T04:39:50;6.50;;;6.00;;
76176;SDS011;64938;47.696;8.066;2023-09-07T04:42:18;6.57;;;6.07;;
76176;SDS011;64938;47.696;8.066;2023-09-07T04:44:43;6.93;;;6.43;;
76176;SDS011;64938;47.696;8.066;2023-09-07T04:47:13;7.40;;;6.60;;
76176;SDS011;64938;47.696;8.066;2023-09-07T04:49:40;7.27;;;6.57;;
76176;SDS011;64938;47.696;8.066;2023-09-07T04:52:06;9.27;;;6.60;;
76176;SDS011;64938;47.696;8.066;2023-09-07T04:54:32;6.70;;;6.10;;
76176;SDS011;64938;47.696;8.066;2023-09-07T05:00:27;7.53;;;6.33;;
76176;SDS011;64938;47.696;8.066;2023-09-07T05:02:53;6.67;;;6.17;;
76176;SDS011;64938;47.696;8.066;2023-09-07T05:08:40;6.27;;;5.77;;
76176;SDS011;64938;47.696;8.066;2023-09-07T05:11:07;6.77;;;6.27;;
76176;SDS011;64938;47.696;8.066;2023-09-07T05:13:33;6.83;;;6.23;;
76176;SDS011;64938;47.696;8.066;2023-09-07T05:15:59;7.03;;;6.43;;
76176;SDS011;64938;47.696;8.066;2023-09-07T05:18:29;6.40;;;5.90;;
76176;SDS011;64938;47.696;8.066;2023-09-07T05:20:58;7.57;;;6.93;;
76176;SDS011;64938;47.696;8.066;2023-09-07T05:23:23;7.00;;;6.40;;
76176;SDS011;64938;47.696;8.066;2023-09-07T05:25:51;6.43;;;5.83;;
76176;SDS011;64938;47.696;8.066;2023-09-07T05:28:20;6.53;;;5.93;;
76176;SDS011;64938;47.696;8.066;2023-09-07T05:30:46;6.80;;;6.20;;
76176;SDS011;64938;47.696;8.066;2023-09-07T05:33:16;7.10;;;6.50;;
76176;SDS011;64938;47.696;8.066;2023-09-07T05:35:42;6.73;;;6.10;;
76176;SDS011;64938;47.696;8.066;2023-09-07T05:38:08;5.77;;;5.27;;
76176;SDS011;64938;47.696;8.066;2023-09-07T05:40:37;6.87;;;6.27;;
76176;SDS011;64938;47.696;8.066;2023-09-07T05:43:04;6.27;;;5.77;;
76176;SDS011;64938;47.696;8.066;2023-09-07T05:45:30;7.63;;;6.30;;
76176;SDS011;64938;47.696;8.066;2023-09-07T05:48:01;6.83;;;6.13;;
76176;SDS011;64938;47.696;8.066;2023-09-07T05:50:33;6.60;;;6.00;;
76176;SDS011;64938;47.696;8.066;2023-09-07T05:53:00;6.77;;;6.17;;
76176;SDS011;64938;47.696;8.066;2023-09-07T05:55:25;6.37;;;5.87;;
76176;SDS011;64938;47.696;8.066;2023-09-07T05:57:53;6.50;;;5.83;;
76176;SDS011;64938;47.696;8.066;2023-09-07T06:00:22;6.87;;;6.17;;
76176;SDS011;64938;47.696;8.066;2023-09-07T06:02:48;6.40;;;5.80;;
76176;SDS011;64938;47.696;8.066;2023-09-07T06:05:16;5.67;;;5.23;;
76176;SDS011;64938;47.696;8.066;2023-09-07T06:07:46;6.90;;;6.30;;
76176;SDS011;64938;47.696;8.066;2023-09-07T06:10:11;5.50;;;5.10;;
76176;SDS011;64938;47.696;8.066;2023-09-07T06:12:40;5.40;;;4.90;;
76176;SDS011;64938;47.696;8.066;2023-09-07T06:15:06;4.70;;;4.40;;
76176;SDS011;64938;47.696;8.066;2023-09-07T06:17:32;4.87;;;4.47;;
76176;SDS011;64938;47.696;8.066;2023-09-07T06:19:57;4.60;;;4.30;;
76176;SDS011;64938;47.696;8.066;2023-09-07T06:22:23;4.35;;;4.05;;
76176;SDS011;64938;47.696;8.066;2023-09-07T06:24:49;4.78;;;4.38;;
76176;SDS011;64938;47.696;8.066;2023-09-07T06:27:16;4.00;;;3.70;;
76176;SDS011;64938;47.696;8.066;2023-09-07T06:29:42;4.40;;;4.10;;
76176;SDS011;64938;47.696;8.066;2023-09-07T06:32:07;4.03;;;3.72;;
76176;SDS011;64938;47.696;8.066;2023-09-07T06:34:33;4.53;;;4.22;;
76176;SDS011;64938;47.696;8.066;2023-09-07T06:36:58;3.47;;;3.22;;
76176;SDS011;64938;47.696;8.066;2023-09-07T06:39:24;4.13;;;3.85;;
76176;SDS011;64938;47.696;8.066;2023-09-07T06:41:50;4.05;;;3.80;;
76176;SDS011;64938;47.696;8.066;2023-09-07T06:44:15;4.20;;;3.90;;
76176;SDS011;64938;47.696;8.066;2023-09-07T06:46:57;4.10;;;3.80;;
76176;SDS011;64938;47.696;8.066;2023-09-07T06:49:23;3.75;;;3.55;;
76176;SDS011;64938;47.696;8.066;2023-09-07T06:51:49;3.97;;;3.58;;
76176;SDS011;64938;47.696;8.066;2023-09-07T06:54:23;4.22;;;3.92;;
76176;SDS011;64938;47.696;8.066;2023-09-07T06:56:51;4.32;;;4.00;;
76176;SDS011;64938;47.696;8.066;2023-09-07T06:59:18;3.70;;;3.50;;
76176;SDS011;64938;47.696;8.066;2023-09-07T07:01:45;4.22;;;3.92;;
76176;SDS011;64938;47.696;8.066;2023-09-07T07:04:11;4.13;;;3.83;;
76176;SDS011;64938;47.696;8.066;2023-09-07T07:06:41;4.28;;;3.90;;
76176;SDS011;64938;47.696;8.066;2023-09-07T07:09:06;4.10;;;3.90;;
76176;SDS011;64938;47.696;8.066;2023-09-07T07:11:35;7.72;;;4.10;;
76176;SDS011;64938;47.696;8.066;2023-09-07T07:14:04;4.25;;;3.95;;
76176;SDS011;64938;47.696;8.066;2023-09-07T07:16:31;4.28;;;3.97;;
76176;SDS011;64938;47.696;8.066;2023-09-07T07:19:09;4.90;;;4.40;;
76176;SDS011;64938;47.696;8.066;2023-09-07T07:21:35;4.40;;;4.00;;
76176;SDS011;64938;47.696;8.066;2023-09-07T07:24:00;4.47;;;4.18;;
76176;SDS011;64938;47.696;8.066;2023-09-07T07:26:26;4.35;;;4.05;;
76176;SDS011;64938;47.696;8.066;2023-09-07T07:28:52;4.57;;;4.20;;
76176;SDS011;64938;47.696;8.066;2023-09-07T07:31:22;4.93;;;4.60;;
76176;SDS011;64938;47.696;8.066;2023-09-07T07:33:48;4.40;;;4.10;;
76176;SDS011;64938;47.696;8.066;2023-09-07T07:36:20;4.40;;;4.10;;
76176;SDS011;64938;47.696;8.066;2023-09-07T07:38:46;4.97;;;4.40;;
76176;SDS011;64938;47.696;8.066;2023-09-07T07:41:15;5.38;;;4.97;;
76176;SDS011;64938;47.696;8.066;2023-09-07T07:43:43;4.53;;;4.22;;
76176;SDS011;64938;47.696;8.066;2023-09-07T07:46:09;4.43;;;4.03;;
76176;SDS011;64938;47.696;8.066;2023-09-07T07:48:35;4.80;;;4.50;;
76176;SDS011;64938;47.696;8.066;2023-09-07T07:51:06;4.38;;;4.07;;
76176;SDS011;64938;47.696;8.066;2023-09-07T07:53:34;4.63;;;4.32;;
76176;SDS011;64938;47.696;8.066;2023-09-07T07:56:04;4.40;;;4.05;;
76176;SDS011;64938;47.696;8.066;2023-09-07T07:58:29;5.00;;;4.50;;
76176;SDS011;64938;47.696;8.066;2023-09-07T08:00:55;5.18;;;4.60;;
76176;SDS011;64938;47.696;8.066;2023-09-07T08:03:23;5.00;;;4.60;;
76176;SDS011;64938;47.696;8.066;2023-09-07T08:05:51;5.28;;;4.82;;
76176;SDS011;64938;47.696;8.066;2023-09-07T08:08:17;5.30;;;4.90;;
76176;SDS011;64938;47.696;8.066;2023-09-07T08:10:45;5.32;;;5.03;;
76176;SDS011;64938;47.696;8.066;2023-09-07T08:13:11;4.70;;;4.35;;
76176;SDS011;64938;47.696;8.066;2023-09-07T08:15:43;4.68;;;4.28;;
76176;SDS011;64938;47.696;8.066;2023-09-07T08:18:11;5.70;;;5.30;;
76176;SDS011;64938;47.696;8.066;2023-09-07T08:20:39;5.20;;;4.80;;
76176;SDS011;64938;47.696;8.066;2023-09-07T08:23:06;5.63;;;5.22;;
76176;SDS011;64938;47.696;8.066;2023-09-07T08:25:36;5.85;;;5.45;;
76176;SDS011;64938;47.696;8.066;2023-09-07T08:28:04;5.80;;;5.40;;
76176;SDS011;64938;47.696;8.066;2023-09-07T08:30:33;5.85;;;5.40;;
76176;SDS011;64938;47.696;8.066;2023-09-07T08:32:59;6.65;;;6.05;;
76176;SDS011;64938;47.696;8.066;2023-09-07T08:35:27;6.43;;;5.90;;
76176;SDS011;64938;47.696;8.066;2023-09-07T08:37:54;6.13;;;5.70;;
76176;SDS011;64938;47.696;8.066;2023-09-07T08:40:22;5.47;;;5.00;;
76176;SDS011;64938;47.696;8.066;2023-09-07T08:42:49;5.95;;;5.20;;
76176;SDS011;64938;47.696;8.066;2023-09-07T08:45:16;5.63;;;5.22;;
76176;SDS011;64938;47.696;8.066;2023-09-07T08:47:44;5.40;;;5.00;;
76176;SDS011;64938;47.696;8.066;2023-09-07T08:50:12;6.53;;;5.95;;
76176;SDS011;64938;47.696;8.066;2023-09-07T08:52:40;6.18;;;5.40;;
76176;SDS011;64938;47.696;8.066;2023-09-07T08:55:07;6.18;;;5.68;;
76176;SDS011;64938;47.696;8.066;2023-09-07T08:57:33;5.82;;;5.20;;
76176;SDS011;64938;47.696;8.066;2023-09-07T09:00:05;6.75;;;5.53;;
76176;SDS011;64938;47.696;8.066;2023-09-07T09:02:38;6.10;;;5.63;;
76176;SDS011;64938;47.696;8.066;2023-09-07T09:05:04;5.63;;;5.22;;
76176;SDS011;64938;47.696;8.066;2023-09-07T09:07:31;6.47;;;5.38;;
76176;SDS011;64938;47.696;8.066;2023-09-07T09:10:05;5.78;;;5.38;;
76176;SDS011;64938;47.696;8.066;2023-09-07T09:12:32;5.93;;;5.45;;
76176;SDS011;64938;47.696;8.066;2023-09-07T09:14:58;6.07;;;5.68;;
76176;SDS011;64938;47.696;8.066;2023-09-07T09:17:25;6.20;;;5.65;;
76176;SDS011;64938;47.696;8.066;2023-09-07T09:19:53;6.32;;;5.93;;
76176;SDS011;64938;47.696;8.066;2023-09-07T09:22:23;6.35;;;5.85;;
76176;SDS011;64938;47.696;8.066;2023-09-07T09:24:49;5.88;;;5.47;;
76176;SDS011;64938;47.696;8.066;2023-09-07T09:27:15;6.35;;;5.88;;
76176;SDS011;64938;47.696;8.066;2023-09-07T09:29:42;6.50;;;6.00;;
76176;SDS011;64938;47.696;8.066;2023-09-07T09:32:07;5.90;;;5.40;;
76176;SDS011;64938;47.696;8.066;2023-09-07T09:34:38;7.05;;;6.55;;
76176;SDS011;64938;47.696;8.066;2023-09-07T09:37:04;6.17;;;5.67;;
76176;SDS011;64938;47.696;8.066;2023-09-07T09:39:29;7.22;;;6.53;;
76176;SDS011;64938;47.696;8.066;2023-09-07T09:41:55;6.60;;;6.10;;
76176;SDS011;64938;47.696;8.066;2023-09-07T09:44:23;6.43;;;5.83;;
76176;SDS011;64938;47.696;8.066;2023-09-07T09:46:51;6.97;;;6.37;;
76176;SDS011;64938;47.696;8.066;2023-09-07T09:49:19;6.65;;;6.25;;
76176;SDS011;64938;47.696;8.066;2023-09-07T09:51:49;6.70;;;6.20;;
76176;SDS011;64938;47.696;8.066;2023-09-07T09:54:18;6.97;;;6.47;;
76176;SDS011;64938;47.696;8.066;2023-09-07T09:56:44;7.78;;;7.25;;
76176;SDS011;64938;47.696;8.066;2023-09-07T09:59:11;7.20;;;6.57;;
76176;SDS011;64938;47.696;8.066;2023-09-07T10:01:46;7.00;;;6.50;;
76176;SDS011;64938;47.696;8.066;2023-09-07T10:04:16;6.47;;;5.78;;
76176;SDS011;64938;47.696;8.066;2023-09-07T10:06:55;7.20;;;6.60;;
76176;SDS011;64938;47.696;8.066;2023-09-07T10:09:23;7.75;;;7.10;;
76176;SDS011;64938;47.696;8.066;2023-09-07T10:11:54;7.38;;;6.80;;
76176;SDS011;64938;47.696;8.066;2023-09-07T10:14:21;7.38;;;6.78;;
76176;SDS011;64938;47.696;8.066;2023-09-07T10:16:51;8.10;;;6.70;;
76176;SDS011;64938;47.696;8.066;2023-09-07T10:19:25;7.43;;;6.82;;
76176;SDS011;64938;47.696;8.066;2023-09-07T10:21:54;7.72;;;6.95;;
76176;SDS011;64938;47.696;8.066;2023-09-07T10:24:25;7.20;;;6.70;;
76176;SDS011;64938;47.696;8.066;2023-09-07T10:26:59;7.22;;;6.72;;
76176;SDS011;64938;47.696;8.066;2023-09-07T10:29:42;7.22;;;6.50;;
76176;SDS011;64938;47.696;8.066;2023-09-07T10:32:13;6.80;;;6.30;;
76176;SDS011;64938;47.696;8.066;2023-09-07T10:34:40;7.03;;;6.53;;
76176;SDS011;64938;47.696;8.066;2023-09-07T10:37:13;9.15;;;6.18;;
76176;SDS011;64938;47.696;8.066;2023-09-07T10:39:40;7.40;;;6.72;;
76176;SDS011;64938;47.696;8.066;2023-09-07T10:42:20;7.32;;;6.72;;
76176;SDS011;64938;47.696;8.066;2023-09-07T10:44:52;7.10;;;6.40;;
76176;SDS011;64938;47.696;8.066;2023-09-07T10:47:18;7.07;;;6.47;;
76176;SDS011;64938;47.696;8.066;2023-09-07T10:49:44;7.53;;;6.93;;
76176;SDS011;64938;47.696;8.066;2023-09-07T10:52:09;6.63;;;6.22;;
76176;SDS011;64938;47.696;8.066;2023-09-07T10:54:35;7.07;;;6.57;;
76176;SDS011;64938;47.696;8.066;2023-09-07T10:57:09;6.95;;;6.47;;
76176;SDS011;64938;47.696;8.066;2023-09-07T10:59:46;7.15;;;6.55;;
76176;SDS011;64938;47.696;8.066;2023-09-07T11:02:12;6.95;;;6.45;;
76176;SDS011;64938;47.696;8.066;2023-09-07T11:04:40;6.43;;;5.93;;
76176;SDS011;64938;47.696;8.066;2023-09-07T11:07:06;8.82;;;7.30;;
76176;SDS011;64938;47.696;8.066;2023-09-07T11:09:32;9.57;;;7.18;;
76176;SDS011;64938;47.696;8.066;2023-09-07T11:12:07;7.13;;;6.45;;
76176;SDS011;64938;47.696;8.066;2023-09-07T11:14:34;7.03;;;6.43;;
76176;SDS011;64938;47.696;8.066;2023-09-07T11:17:00;6.70;;;6.20;;
76176;SDS011;64938;47.696;8.066;2023-09-07T11:19:33;7.18;;;6.65;;
76176;SDS011;64938;47.696;8.066;2023-09-07T11:22:01;7.07;;;6.47;;
76176;SDS011;64938;47.696;8.066;2023-09-07T11:24:32;7.13;;;6.53;;
76176;SDS011;64938;47.696;8.066;2023-09-07T11:27:01;9.00;;;6.70;;
76176;SDS011;64938;47.696;8.066;2023-09-07T11:29:27;7.55;;;6.97;;
76176;SDS011;64938;47.696;8.066;2023-09-07T11:32:05;7.38;;;6.70;;
76176;SDS011;64938;47.696;8.066;2023-09-07T11:34:49;7.25;;;6.65;;
76176;SDS011;64938;47.696;8.066;2023-09-07T11:37:16;6.90;;;6.40;;
76176;SDS011;64938;47.696;8.066;2023-09-07T11:39:43;8.00;;;7.32;;
76176;SDS011;64938;47.696;8.066;2023-09-07T11:42:09;6.38;;;5.95;;
76176;SDS011;64938;47.696;8.066;2023-09-07T11:44:35;7.10;;;5.95;;
76176;SDS011;64938;47.696;8.066;2023-09-07T11:47:00;7.55;;;6.95;;
76176;SDS011;64938;47.696;8.066;2023-09-07T12:00:06;6.70;;;6.20;;
76176;SDS011;64938;47.696;8.066;2023-09-07T12:02:36;14.52;;;6.68;;
76176;SDS011;64938;47.696;8.066;2023-09-07T12:05:04;6.90;;;6.10;;
76176;SDS011;64938;47.696;8.066;2023-09-07T12:07:32;7.22;;;6.70;;
76176;SDS011;64938;47.696;8.066;2023-09-07T12:09:57;7.25;;;5.97;;
76176;SDS011;64938;47.696;8.066;2023-09-07T12:12:23;6.82;;;6.32;;
76176;SDS011;64938;47.696;8.066;2023-09-07T12:14:53;6.10;;;5.70;;
76176;SDS011;64938;47.696;8.066;2023-09-07T12:17:21;6.78;;;6.18;;
76176;SDS011;64938;47.696;8.066;2023-09-07T12:19:50;6.47;;;5.90;;
76176;SDS011;64938;47.696;8.066;2023-09-07T12:22:25;6.80;;;6.10;;
76176;SDS011;64938;47.696;8.066;2023-09-07T12:24:54;6.60;;;6.15;;
76176;SDS011;64938;47.696;8.066;2023-09-07T12:27:21;6.10;;;5.70;;
76176;SDS011;64938;47.696;8.066;2023-09-07T12:29:48;6.95;;;6.35;;
76176;SDS011;64938;47.696;8.066;2023-09-07T12:32:19;7.22;;;6.03;;
76176;SDS011;64938;47.696;8.066;2023-09-07T12:34:47;7.10;;;6.50;;
76176;SDS011;64938;47.696;8.066;2023-09-07T12:37:19;6.43;;;5.97;;
76176;SDS011;64938;47.696;8.066;2023-09-07T12:39:49;6.50;;;6.00;;
76176;SDS011;64938;47.696;8.066;2023-09-07T12:42:17;7.47;;;6.45;;
76176;SDS011;64938;47.696;8.066;2023-09-07T12:44:44;7.18;;;6.68;;
76176;SDS011;64938;47.696;8.066;2023-09-07T12:47:10;6.53;;;6.00;;
76176;SDS011;64938;47.696;8.066;2023-09-07T12:49:39;6.55;;;6.05;;
76176;SDS011;64938;47.696;8.066;2023-09-07T12:52:05;6.25;;;5.70;;
76176;SDS011;64938;47.696;8.066;2023-09-07T12:54:37;6.88;;;6.28;;
76176;SDS011;64938;47.696;8.066;2023-09-07T12:57:03;5.80;;;5.40;;
76176;SDS011;64938;47.696;8.066;2023-09-07T12:59:29;8.45;;;6.80;;
76176;SDS011;64938;47.696;8.066;2023-09-07T13:01:59;6.45;;;6.00;;
76176;SDS011;64938;47.696;8.066;2023-09-07T13:04:25;5.90;;;5.50;;
76176;SDS011;64938;47.696;8.066;2023-09-07T13:06:51;6.00;;;5.60;;
76176;SDS011;64938;47.696;8.066;2023-09-07T13:09:23;6.70;;;6.07;;
76176;SDS011;64938;47.696;8.066;2023-09-07T13:11:54;6.38;;;5.97;;
76176;SDS011;64938;47.696;8.066;2023-09-07T13:14:20;6.88;;;6.30;;
76176;SDS011;64938;47.696;8.066;2023-09-07T13:16:46;6.15;;;5.75;;
76176;SDS011;64938;47.696;8.066;2023-09-07T13:19:12;6.32;;;5.82;;
76176;SDS011;64938;47.696;8.066;2023-09-07T13:21:40;6.93;;;6.32;;
76176;SDS011;64938;47.696;8.066;2023-09-07T13:24:07;6.25;;;5.78;;
76176;SDS011;64938;47.696;8.066;2023-09-07T13:26:33;6.53;;;6.00;;
76176;SDS011;64938;47.696;8.066;2023-09-07T13:28:59;6.03;;;5.63;;
76176;SDS011;64938;47.696;8.066;2023-09-07T13:31:26;6.95;;;6.25;;
76176;SDS011;64938;47.696;8.066;2023-09-07T13:33:56;6.85;;;6.25;;
76176;SDS011;64938;47.696;8.066;2023-09-07T13:36:22;6.50;;;5.90;;
76176;SDS011;64938;47.696;8.066;2023-09-07T13:38:50;6.40;;;5.70;;
76176;SDS011;64938;47.696;8.066;2023-09-07T13:41:19;7.35;;;6.75;;
76176;SDS011;64938;47.696;8.066;2023-09-07T13:43:51;6.28;;;5.78;;
76176;SDS011;64938;47.696;8.066;2023-09-07T13:46:19;7.65;;;6.20;;
76176;SDS011;64938;47.696;8.066;2023-09-07T13:48:46;7.03;;;5.63;;
76176;SDS011;64938;47.696;8.066;2023-09-07T13:51:15;6.97;;;6.40;;
76176;SDS011;64938;47.696;8.066;2023-09-07T13:53:40;6.32;;;5.93;;
76176;SDS011;64938;47.696;8.066;2023-09-07T13:56:06;6.10;;;5.60;;
76176;SDS011;64938;47.696;8.066;2023-09-07T13:58:32;6.63;;;6.03;;
76176;SDS011;64938;47.696;8.066;2023-09-07T14:00:57;6.57;;;6.07;;
76176;SDS011;64938;47.696;8.066;2023-09-07T14:03:23;6.32;;;5.88;;
76176;SDS011;64938;47.696;8.066;2023-09-07T14:05:52;6.63;;;6.03;;
76176;SDS011;64938;47.696;8.066;2023-09-07T14:08:18;6.80;;;6.30;;
76176;SDS011;64938;47.696;8.066;2023-09-07T14:10:48;7.30;;;6.80;;
76176;SDS011;64938;47.696;8.066;2023-09-07T14:13:18;6.30;;;5.90;;
76176;SDS011;64938;47.696;8.066;2023-09-07T14:15:46;6.60;;;6.00;;
76176;SDS011;64938;47.696;8.066;2023-09-07T14:18:11;6.20;;;5.80;;
76176;SDS011;64938;47.696;8.066;2023-09-07T14:20:37;6.70;;;6.20;;
76176;SDS011;64938;47.696;8.066;2023-09-07T14:23:03;6.85;;;6.35;;
76176;SDS011;64938;47.696;8.066;2023-09-07T14:25:29;7.23;;;6.57;;
76176;SDS011;64938;47.696;8.066;2023-09-07T14:27:55;7.00;;;6.50;;
76176;SDS011;64938;47.696;8.066;2023-09-07T14:30:45;6.80;;;6.30;;
76176;SDS011;64938;47.696;8.066;2023-09-07T14:33:15;6.88;;;6.18;;
76176;SDS011;64938;47.696;8.066;2023-09-07T14:35:44;7.30;;;6.70;;
76176;SDS011;64938;47.696;8.066;2023-09-07T14:38:10;6.30;;;5.90;;
76176;SDS011;64938;47.696;8.066;2023-09-07T14:40:35;8.23;;;6.57;;
76176;SDS011;64938;47.696;8.066;2023-09-07T14:43:01;6.57;;;6.07;;
76176;SDS011;64938;47.696;8.066;2023-09-07T14:45:31;7.20;;;6.63;;
76176;SDS011;64938;47.696;8.066;2023-09-07T14:48:02;6.32;;;5.72;;
76176;SDS011;64938;47.696;8.066;2023-09-07T14:50:30;7.00;;;6.37;;
76176;SDS011;64938;47.696;8.066;2023-09-07T14:52:55;6.87;;;6.30;;
76176;SDS011;64938;47.696;8.066;2023-09-07T14:55:21;7.05;;;6.55;;
76176;SDS011;64938;47.696;8.066;2023-09-07T14:57:47;6.93;;;6.43;;
76176;SDS011;64938;47.696;8.066;2023-09-07T15:00:15;6.72;;;6.22;;
76176;SDS011;64938;47.696;8.066;2023-09-07T15:02:41;7.07;;;6.55;;
76176;SDS011;64938;47.696;8.066;2023-09-07T15:05:07;6.88;;;6.32;;
76176;SDS011;64938;47.696;8.066;2023-09-07T15:07:37;6.35;;;5.85;;
76176;SDS011;64938;47.696;8.066;2023-09-07T15:10:03;6.72;;;6.15;;